createdAt,value
2022-12-27T00:01:12.227Z,6.63
2022-12-27T00:03:40.628Z,6.48
2022-12-27T00:06:10.237Z,6.47
2022-12-27T00:08:38.147Z,6.57
2022-12-27T00:11:09.381Z,6.42
2022-12-27T00:13:37.642Z,6.49
2022-12-27T00:16:06.668Z,6.35
2022-12-27T00:18:35.221Z,6.32
2022-12-27T00:21:04.953Z,5.97
2022-12-27T00:23:36.085Z,6.16
2022-12-27T00:26:06.614Z,6.19
2022-12-27T00:28:36.735Z,6.20
2022-12-27T00:31:05.729Z,6.08
2022-12-27T00:33:36.669Z,6.23
2022-12-27T00:36:07.523Z,6.39
2022-12-27T00:38:35.686Z,6.34
2022-12-27T00:41:04.683Z,6.36
2022-12-27T00:43:33.085Z,6.49
2022-12-27T00:46:03.028Z,6.53
2022-12-27T00:48:30.958Z,6.44
2022-12-27T00:51:00.787Z,6.49
2022-12-27T00:53:29.673Z,6.49
2022-12-27T00:55:57.960Z,6.43
2022-12-27T00:58:26.817Z,6.34
2022-12-27T01:00:55.006Z,6.40
2022-12-27T01:03:24.305Z,6.38
2022-12-27T01:05:52.226Z,6.71
2022-12-27T01:08:20.084Z,6.76
2022-12-27T01:10:49.978Z,6.94
2022-12-27T01:13:17.915Z,6.64
2022-12-27T01:15:45.871Z,6.85
2022-12-27T01:18:13.718Z,6.81
2022-12-27T01:20:43.245Z,6.73
2022-12-27T01:23:11.134Z,6.58
2022-12-27T01:25:39.122Z,6.56
2022-12-27T01:28:07.858Z,6.70
2022-12-27T01:30:36.025Z,6.76
2022-12-27T01:33:04.623Z,6.84
2022-12-27T01:35:32.690Z,6.81
2022-12-27T01:38:02.087Z,6.78
2022-12-27T01:40:30.686Z,6.71
2022-12-27T01:42:57.572Z,6.79
2022-12-27T01:45:26.683Z,6.79
2022-12-27T01:48:00.735Z,6.96
2022-12-27T01:50:35.009Z,6.78
2022-12-27T01:53:10.032Z,6.85
2022-12-27T01:55:45.688Z,6.76
2022-12-27T01:58:18.786Z,6.59
2022-12-27T02:00:49.928Z,6.60
2022-12-27T02:03:23.464Z,6.81
2022-12-27T02:05:51.870Z,6.80
2022-12-27T02:08:38.150Z,6.80
2022-12-27T02:11:07.320Z,6.85
2022-12-27T02:13:40.320Z,6.70
2022-12-27T02:16:13.291Z,6.90
2022-12-27T02:18:41.268Z,6.76
2022-12-27T02:21:31.627Z,6.76
2022-12-27T02:24:22.768Z,6.89
2022-12-27T02:26:54.326Z,6.93
2022-12-27T02:29:52.726Z,7.13
2022-12-27T02:32:28.954Z,7.02
2022-12-27T02:35:06.042Z,7.04
2022-12-27T02:37:38.538Z,6.88
2022-12-27T02:40:28.597Z,6.74
2022-12-27T02:43:15.360Z,6.85
2022-12-27T02:46:09.824Z,6.89
2022-12-27T02:48:55.864Z,6.54
2022-12-27T02:51:54.577Z,6.50
2022-12-27T02:54:45.978Z,6.60
2022-12-27T02:57:23.458Z,6.68
2022-12-27T03:00:23.450Z,6.84
2022-12-27T03:03:24.379Z,6.96
2022-12-27T03:06:47.421Z,7.07
2022-12-27T03:09:57.694Z,6.96
2022-12-27T03:12:54.951Z,7.12
2022-12-27T03:15:58.805Z,6.96
2022-12-27T03:18:36.982Z,6.94
2022-12-27T03:21:25.063Z,6.98
2022-12-27T03:24:13.874Z,7.00
2022-12-27T03:26:44.983Z,6.76
2022-12-27T03:29:32.654Z,6.72
2022-12-27T03:32:22.675Z,6.59
2022-12-27T03:34:56.922Z,6.74
2022-12-27T03:37:47.050Z,6.65
2022-12-27T03:40:27.648Z,6.55
2022-12-27T03:43:11.263Z,6.60
2022-12-27T03:46:14.529Z,6.72
2022-12-27T03:48:55.025Z,6.63
2022-12-27T03:51:27.293Z,6.80
2022-12-27T03:54:02.108Z,6.79
2022-12-27T03:56:31.007Z,6.67
2022-12-27T03:59:00.763Z,6.75
2022-12-27T04:01:28.767Z,6.80
2022-12-27T04:03:56.966Z,6.68
2022-12-27T04:06:26.672Z,6.63
2022-12-27T04:09:11.978Z,6.76
2022-12-27T04:11:57.140Z,6.77
2022-12-27T04:14:42.753Z,6.72
2022-12-27T04:17:28.435Z,6.80
2022-12-27T04:20:13.785Z,6.62
2022-12-27T04:23:00.334Z,6.58
2022-12-27T04:25:45.979Z,6.55
2022-12-27T04:28:31.687Z,6.66
2022-12-27T04:31:16.975Z,6.65
2022-12-27T04:34:02.569Z,6.65
2022-12-27T04:36:30.492Z,6.55
2022-12-27T04:38:59.914Z,6.73
2022-12-27T04:41:45.342Z,6.87
2022-12-27T04:44:30.866Z,6.76
2022-12-27T04:47:28.172Z,6.68
2022-12-27T04:50:13.604Z,6.63
2022-12-27T04:52:58.907Z,6.51
2022-12-27T04:55:30.403Z,6.52
2022-12-27T04:57:59.549Z,6.53
2022-12-27T05:00:48.881Z,6.49
2022-12-27T05:03:19.951Z,6.46
2022-12-27T05:05:49.492Z,6.55
2022-12-27T05:08:36.992Z,6.50
2022-12-27T05:11:24.160Z,6.63
2022-12-27T05:14:00.861Z,6.53
2022-12-27T05:16:29.228Z,6.57
2022-12-27T05:18:57.355Z,6.65
2022-12-27T05:21:26.122Z,6.82
2022-12-27T05:24:11.895Z,6.65
2022-12-27T05:26:43.093Z,6.94
2022-12-27T05:29:11.148Z,6.93
2022-12-27T05:31:39.278Z,6.78
2022-12-27T05:34:07.535Z,6.80
2022-12-27T05:36:35.497Z,6.52
2022-12-27T05:39:03.804Z,6.53
2022-12-27T05:41:31.767Z,6.57
2022-12-27T05:44:06.935Z,6.50
2022-12-27T05:46:35.798Z,6.52
2022-12-27T05:49:03.789Z,6.54
2022-12-27T05:51:31.628Z,6.58
2022-12-27T05:53:59.423Z,6.59
2022-12-27T05:56:27.255Z,6.81
2022-12-27T05:58:55.356Z,6.77
2022-12-27T06:01:24.711Z,6.62
2022-12-27T06:03:52.658Z,6.77
2022-12-27T06:06:20.648Z,6.64
2022-12-27T06:08:48.568Z,6.68
2022-12-27T06:11:18.566Z,6.58
2022-12-27T06:13:50.759Z,6.71
2022-12-27T06:16:19.630Z,6.89
2022-12-27T06:18:49.001Z,6.94
2022-12-27T06:21:18.875Z,6.92
2022-12-27T06:23:47.620Z,6.82
2022-12-27T06:26:16.961Z,6.70
2022-12-27T06:28:44.905Z,6.51
2022-12-27T06:31:13.132Z,6.61
2022-12-27T06:33:41.021Z,6.53
2022-12-27T06:36:13.026Z,6.49
2022-12-27T06:38:41.231Z,6.52
2022-12-27T06:41:11.452Z,6.50
2022-12-27T06:43:40.068Z,6.44
2022-12-27T06:46:16.870Z,6.50
2022-12-27T06:48:46.805Z,6.67
2022-12-27T06:51:17.913Z,6.64
2022-12-27T06:53:47.266Z,6.68
2022-12-27T06:56:18.680Z,6.74
2022-12-27T06:58:47.232Z,6.86
2022-12-27T07:01:17.972Z,6.74
2022-12-27T07:03:50.500Z,6.64
2022-12-27T07:06:21.011Z,6.43
2022-12-27T07:08:49.228Z,6.40
2022-12-27T07:11:18.219Z,6.26
2022-12-27T07:13:48.372Z,6.17
2022-12-27T07:16:18.133Z,6.26
2022-12-27T07:18:47.151Z,6.31
2022-12-27T07:21:22.232Z,6.31
2022-12-27T07:23:51.271Z,6.23
2022-12-27T07:26:22.091Z,6.40
2022-12-27T07:28:50.573Z,6.42
2022-12-27T07:31:20.888Z,6.28
2022-12-27T07:33:48.910Z,6.12
2022-12-27T07:36:20.181Z,6.21
2022-12-27T07:38:50.163Z,6.30
2022-12-27T07:41:19.029Z,6.26
2022-12-27T07:43:47.192Z,6.28
2022-12-27T07:46:16.868Z,6.23
2022-12-27T07:48:45.873Z,6.32
2022-12-27T07:51:14.453Z,6.24
2022-12-27T07:53:42.536Z,6.24
2022-12-27T07:56:13.651Z,6.16
2022-12-27T07:58:43.331Z,6.26
2022-12-27T08:01:14.390Z,6.12
2022-12-27T08:03:42.911Z,6.21
2022-12-27T08:06:21.882Z,6.05
2022-12-27T08:08:51.074Z,6.23
2022-12-27T08:11:20.732Z,6.27
2022-12-27T08:13:48.725Z,6.20
2022-12-27T08:16:19.296Z,6.14
2022-12-27T08:18:47.793Z,6.23
2022-12-27T08:21:16.716Z,6.27
2022-12-27T08:23:44.587Z,6.19
2022-12-27T08:26:12.614Z,6.11
2022-12-27T08:28:41.941Z,6.26
2022-12-27T08:31:11.135Z,6.33
2022-12-27T08:33:41.535Z,6.22
2022-12-27T08:38:59.316Z,6.30
2022-12-27T08:41:27.300Z,6.21
2022-12-27T08:43:56.562Z,6.10
2022-12-27T08:46:24.571Z,6.16
2022-12-27T08:48:52.720Z,6.21
2022-12-27T08:51:32.672Z,6.27
2022-12-27T08:54:03.789Z,6.19
2022-12-27T08:56:31.702Z,6.10
2022-12-27T08:59:01.257Z,6.17
2022-12-27T09:01:29.871Z,6.29
2022-12-27T09:03:57.974Z,6.24
2022-12-27T09:06:27.682Z,5.97
2022-12-27T09:08:56.555Z,6.02
2022-12-27T09:11:30.617Z,5.99
2022-12-27T09:14:02.635Z,6.12
2022-12-27T09:16:32.359Z,6.15
2022-12-27T09:19:01.444Z,6.36
2022-12-27T09:21:32.653Z,6.29
2022-12-27T09:24:00.689Z,6.41
2022-12-27T09:26:31.462Z,6.47
2022-12-27T09:29:01.440Z,6.42
2022-12-27T09:31:30.034Z,6.49
2022-12-27T09:33:58.696Z,6.54
2022-12-27T09:36:28.386Z,6.57
2022-12-27T09:38:57.811Z,6.58
2022-12-27T09:42:34.157Z,6.53
2022-12-27T09:44:33.328Z,6.74
2022-12-27T09:47:07.203Z,6.71
2022-12-27T09:49:39.475Z,6.67
2022-12-27T09:52:15.638Z,6.61
2022-12-27T09:54:57.891Z,6.67
2022-12-27T09:57:35.585Z,6.85
2022-12-27T10:00:12.210Z,6.48
2022-12-27T10:02:40.222Z,6.60
2022-12-27T10:05:21.133Z,6.63
2022-12-27T10:07:59.798Z,6.69
2022-12-27T10:10:40.435Z,6.77
2022-12-27T10:13:23.169Z,6.76
2022-12-27T10:16:01.708Z,6.69
2022-12-27T10:18:44.745Z,6.76
2022-12-27T10:21:20.239Z,6.70
2022-12-27T10:23:53.847Z,6.79
2022-12-27T10:26:22.332Z,6.80
2022-12-27T10:28:57.606Z,6.87
2022-12-27T10:31:27.918Z,7.00
2022-12-27T10:33:57.058Z,6.97
2022-12-27T10:36:26.990Z,7.00
2022-12-27T10:38:55.950Z,7.00
2022-12-27T10:41:38.378Z,7.18
2022-12-27T10:44:11.495Z,6.87
2022-12-27T10:46:44.514Z,7.08
2022-12-27T10:49:24.171Z,7.12
2022-12-27T10:51:53.731Z,7.03
2022-12-27T10:54:25.072Z,6.85
2022-12-27T10:56:53.581Z,6.98
2022-12-27T10:59:23.775Z,7.10
2022-12-27T11:02:15.766Z,7.27
2022-12-27T11:04:58.410Z,7.18
2022-12-27T11:07:31.527Z,7.11
2022-12-27T11:10:16.708Z,7.31
2022-12-27T11:12:57.115Z,7.65
2022-12-27T11:15:26.671Z,7.60
2022-12-27T11:17:58.336Z,7.90
2022-12-27T11:20:29.569Z,7.91
2022-12-27T11:23:02.650Z,8.06
2022-12-27T11:25:32.390Z,8.05
2022-12-27T11:28:04.897Z,7.92
2022-12-27T11:30:36.152Z,7.86
2022-12-27T11:33:24.326Z,7.80
2022-12-27T11:35:56.858Z,7.98
2022-12-27T11:38:27.515Z,7.85
2022-12-27T11:41:00.038Z,7.70
2022-12-27T11:43:31.628Z,7.57
2022-12-27T11:46:04.598Z,7.78
2022-12-27T11:48:39.591Z,7.70
2022-12-27T11:51:30.109Z,7.98
2022-12-27T11:54:20.795Z,8.07
2022-12-27T11:56:53.172Z,8.27
2022-12-27T11:59:48.347Z,8.34
2022-12-27T12:02:49.748Z,8.33
2022-12-27T12:05:49.479Z,8.32
2022-12-27T12:08:37.059Z,8.27
2022-12-27T12:11:16.108Z,8.23
2022-12-27T12:14:06.145Z,8.41
2022-12-27T12:16:56.311Z,8.30
2022-12-27T12:19:49.311Z,8.27
2022-12-27T12:22:34.516Z,8.42
2022-12-27T12:25:26.249Z,8.31
2022-12-27T12:28:55.745Z,8.29
2022-12-27T12:31:21.800Z,8.32
2022-12-27T12:34:07.334Z,8.52
2022-12-27T12:36:53.261Z,8.53
2022-12-27T12:39:42.661Z,8.37
2022-12-27T12:42:21.552Z,8.55
2022-12-27T12:45:21.413Z,8.66
2022-12-27T12:48:08.933Z,8.40
2022-12-27T12:50:54.828Z,8.49
2022-12-27T12:53:45.041Z,8.34
2022-12-27T12:56:33.261Z,8.41
2022-12-27T12:59:14.440Z,8.14
2022-12-27T13:01:54.308Z,8.15
2022-12-27T13:04:57.626Z,8.09
2022-12-27T13:07:40.917Z,8.01
2022-12-27T13:10:31.868Z,7.99
2022-12-27T13:13:06.462Z,7.89
2022-12-27T13:15:49.894Z,7.70
2022-12-27T13:18:30.472Z,7.72
2022-12-27T13:21:08.157Z,7.80
2022-12-27T13:23:46.281Z,7.91
2022-12-27T13:26:23.718Z,7.91
2022-12-27T13:29:08.134Z,8.07
2022-12-27T13:31:46.270Z,7.89
2022-12-27T13:34:27.762Z,7.72
2022-12-27T13:37:13.029Z,7.81
2022-12-27T13:39:58.606Z,7.82
2022-12-27T13:42:49.974Z,8.00
2022-12-27T13:45:32.895Z,7.90
2022-12-27T13:48:15.183Z,7.98
2022-12-27T13:51:07.679Z,8.05
2022-12-27T13:54:03.952Z,7.92
2022-12-27T13:56:54.043Z,8.00
2022-12-27T13:59:43.267Z,8.06
2022-12-27T14:02:47.087Z,7.96
2022-12-27T14:06:00.915Z,7.97
2022-12-27T14:08:50.449Z,7.99
2022-12-27T14:11:34.163Z,8.06
2022-12-27T14:14:04.611Z,8.05
2022-12-27T14:16:43.669Z,8.18
2022-12-27T14:19:52.992Z,7.97
2022-12-27T14:22:50.962Z,8.03
2022-12-27T14:25:55.476Z,7.96
2022-12-27T14:28:48.464Z,8.07
2022-12-27T14:31:52.608Z,7.94
2022-12-27T14:34:54.536Z,8.21
2022-12-27T14:37:55.763Z,7.92
2022-12-27T14:40:44.911Z,7.90
2022-12-27T14:43:49.429Z,7.98
2022-12-27T14:46:58.350Z,7.96
2022-12-27T14:50:05.768Z,7.83
2022-12-27T14:53:18.199Z,7.61
2022-12-27T14:55:58.775Z,7.57
2022-12-27T14:58:47.589Z,7.70
2022-12-27T15:01:26.895Z,7.68
2022-12-27T15:04:04.847Z,7.84
2022-12-27T15:06:48.520Z,7.97
2022-12-27T15:09:30.588Z,7.90
2022-12-27T15:12:10.070Z,7.98
2022-12-27T15:15:12.796Z,8.03
2022-12-27T15:18:06.965Z,8.08
2022-12-27T15:20:56.017Z,8.08
2022-12-27T15:23:34.921Z,8.07
2022-12-27T15:26:16.036Z,7.88
2022-12-27T15:29:10.643Z,7.90
2022-12-27T15:31:49.008Z,7.94
2022-12-27T15:34:36.369Z,7.83
2022-12-27T15:37:05.571Z,7.55
2022-12-27T15:39:50.836Z,7.61
2022-12-27T15:42:38.773Z,7.57
2022-12-27T15:45:22.214Z,7.44
2022-12-27T15:48:23.372Z,7.56
2022-12-27T15:50:59.596Z,7.47
2022-12-27T15:53:54.899Z,7.57
2022-12-27T15:56:36.706Z,7.51
2022-12-27T15:59:36.766Z,7.64
2022-12-27T16:02:25.922Z,7.72
2022-12-27T16:04:56.891Z,7.72
2022-12-27T16:07:40.615Z,7.70
2022-12-27T16:10:33.332Z,7.50
2022-12-27T16:13:14.245Z,7.41
2022-12-27T16:15:53.676Z,7.37
2022-12-27T16:19:04.052Z,7.46
2022-12-27T16:21:41.134Z,7.53
2022-12-27T16:24:17.597Z,7.53
2022-12-27T16:26:56.019Z,7.43
2022-12-27T16:29:29.276Z,7.40
2022-12-27T16:32:19.109Z,7.44
2022-12-27T16:34:51.430Z,7.29
2022-12-27T16:37:31.322Z,7.46
2022-12-27T16:40:18.304Z,7.43
2022-12-27T16:43:32.660Z,7.61
2022-12-27T16:46:13.697Z,7.56
2022-12-27T16:48:56.174Z,7.49
2022-12-27T16:51:37.481Z,7.37
2022-12-27T16:54:16.630Z,7.39
2022-12-27T16:56:48.136Z,7.37
2022-12-27T16:59:53.577Z,7.39
2022-12-27T17:02:41.949Z,7.45
2022-12-27T17:05:36.478Z,7.46
2022-12-27T17:08:15.398Z,7.49
2022-12-27T17:11:02.811Z,7.41
2022-12-27T17:13:43.239Z,7.44
2022-12-27T17:16:20.044Z,7.53
2022-12-27T17:18:53.359Z,7.36
2022-12-27T17:21:30.428Z,7.36
2022-12-27T17:24:01.281Z,7.38
2022-12-27T17:27:05.539Z,7.33
2022-12-27T17:29:48.586Z,7.39
2022-12-27T17:32:34.616Z,7.34
2022-12-27T17:35:10.261Z,7.40
2022-12-27T17:37:47.121Z,7.23
2022-12-27T17:40:29.273Z,7.32
2022-12-27T17:43:25.413Z,7.21
2022-12-27T17:46:00.002Z,7.02
2022-12-27T17:48:30.045Z,7.07
2022-12-27T17:51:03.378Z,7.20
2022-12-27T17:53:50.496Z,7.18
2022-12-27T17:56:53.750Z,6.97
2022-12-27T17:59:25.936Z,6.87
2022-12-27T18:02:00.470Z,6.86
2022-12-27T18:04:31.460Z,6.91
2022-12-27T18:07:02.365Z,6.90
2022-12-27T18:09:41.940Z,6.83
2022-12-27T18:12:13.163Z,7.05
2022-12-27T18:14:41.942Z,7.14
2022-12-27T18:17:28.497Z,7.06
2022-12-27T18:19:57.263Z,7.19
2022-12-27T18:22:25.425Z,7.15
2022-12-27T18:24:54.711Z,7.04
2022-12-27T18:27:25.517Z,7.12
2022-12-27T18:29:53.675Z,7.35
2022-12-27T18:32:23.553Z,7.11
2022-12-27T18:34:55.459Z,7.41
2022-12-27T18:37:25.865Z,7.46
2022-12-27T18:39:56.908Z,7.38
2022-12-27T18:42:34.331Z,7.21
2022-12-27T18:45:06.163Z,7.20
2022-12-27T18:47:39.804Z,7.39
2022-12-27T18:50:18.519Z,7.53
2022-12-27T18:52:52.939Z,7.23
2022-12-27T18:55:26.837Z,7.10
2022-12-27T18:58:03.518Z,7.31
2022-12-27T19:00:31.556Z,7.15
2022-12-27T19:03:14.784Z,7.08
2022-12-27T19:06:05.463Z,7.47
2022-12-27T19:08:38.016Z,7.35
2022-12-27T19:11:08.728Z,7.57
2022-12-27T19:13:44.219Z,7.31
2022-12-27T19:16:23.123Z,7.44
2022-12-27T19:18:54.256Z,7.51
2022-12-27T19:21:31.971Z,7.51
2022-12-27T19:24:20.083Z,7.40
2022-12-27T19:26:49.759Z,7.32
2022-12-27T19:29:20.056Z,7.32
2022-12-27T19:31:55.156Z,7.45
2022-12-27T19:34:27.662Z,7.36
2022-12-27T19:36:56.555Z,7.36
2022-12-27T19:39:28.179Z,7.58
2022-12-27T19:42:00.449Z,7.58
2022-12-27T19:44:29.504Z,7.54
2022-12-27T19:46:57.349Z,7.49
2022-12-27T19:49:45.562Z,7.29
2022-12-27T19:52:17.389Z,7.43
2022-12-27T19:54:45.537Z,7.58
2022-12-27T19:57:15.654Z,7.65
2022-12-27T19:59:43.609Z,7.66
2022-12-27T20:02:11.725Z,7.84
2022-12-27T20:04:40.735Z,7.50
2022-12-27T20:07:37.769Z,7.57
2022-12-27T20:10:08.174Z,7.59
2022-12-27T20:12:37.821Z,7.59
2022-12-27T20:15:06.996Z,7.51
2022-12-27T20:17:38.395Z,7.65
2022-12-27T20:20:11.573Z,7.72
2022-12-27T20:22:39.498Z,7.82
2022-12-27T20:25:08.496Z,7.82
2022-12-27T20:27:38.011Z,7.84
2022-12-27T20:30:07.570Z,7.72
2022-12-27T20:32:35.753Z,7.76
2022-12-27T20:35:03.831Z,7.86
2022-12-27T20:37:31.758Z,7.76
2022-12-27T20:39:59.676Z,7.84
2022-12-27T20:42:27.588Z,7.79
2022-12-27T20:44:56.930Z,7.55
2022-12-27T20:47:25.013Z,7.56
2022-12-27T20:49:52.882Z,7.81
2022-12-27T20:52:24.391Z,7.87
2022-12-27T20:54:56.991Z,7.84
2022-12-27T20:57:24.859Z,7.79
2022-12-27T20:59:52.935Z,7.86
2022-12-27T21:02:22.286Z,7.87
2022-12-27T21:04:50.339Z,7.78
2022-12-27T21:07:18.347Z,7.81
2022-12-27T21:09:46.365Z,7.69
2022-12-27T21:12:14.393Z,7.74
2022-12-27T21:14:42.369Z,7.87
2022-12-27T21:17:10.399Z,7.75
2022-12-27T21:19:39.691Z,7.84
2022-12-27T21:22:07.632Z,7.72
2022-12-27T21:24:35.643Z,7.84
2022-12-27T21:27:03.544Z,7.76
2022-12-27T21:29:31.719Z,7.59
2022-12-27T21:31:59.721Z,7.69
2022-12-27T21:34:28.133Z,7.67
2022-12-27T21:36:57.453Z,7.60
2022-12-27T21:39:25.546Z,7.47
2022-12-27T21:41:53.557Z,7.52
2022-12-27T21:44:25.157Z,7.59
2022-12-27T21:46:53.287Z,7.54
2022-12-27T21:49:21.127Z,7.43
2022-12-27T21:51:49.718Z,7.66
2022-12-27T21:54:19.238Z,7.57
2022-12-27T21:56:47.076Z,7.44
2022-12-27T21:59:15.079Z,7.44
2022-12-27T22:01:49.995Z,7.57
2022-12-27T22:04:20.945Z,7.29
2022-12-27T22:06:49.125Z,7.39
2022-12-27T22:09:17.040Z,7.39
2022-12-27T22:11:46.342Z,7.35
2022-12-27T22:14:14.376Z,7.38
2022-12-27T22:16:42.331Z,7.48
2022-12-27T22:19:12.299Z,7.54
2022-12-27T22:21:41.142Z,7.44
2022-12-27T22:24:13.149Z,7.60
2022-12-27T22:26:42.258Z,7.45
2022-12-27T22:29:12.032Z,7.51
2022-12-27T22:31:40.321Z,7.48
2022-12-27T22:34:08.298Z,7.58
2022-12-27T22:36:36.486Z,7.44
2022-12-27T22:39:05.812Z,7.39
2022-12-27T22:41:35.427Z,7.25
2022-12-27T22:44:05.177Z,7.58
2022-12-27T22:49:22.522Z,7.50
2022-12-27T22:51:50.351Z,7.35
2022-12-27T22:54:18.237Z,7.37
2022-12-27T22:56:46.175Z,7.39
2022-12-27T22:59:16.184Z,7.23
2022-12-27T23:01:46.425Z,7.31
2022-12-27T23:04:15.138Z,7.19
2022-12-27T23:06:45.237Z,7.21
2022-12-27T23:09:13.200Z,7.34
2022-12-27T23:11:42.506Z,7.25
2022-12-27T23:14:13.177Z,7.04
2022-12-27T23:16:43.286Z,7.25
2022-12-27T23:19:13.791Z,7.03
2022-12-27T23:21:41.789Z,7.12
2022-12-27T23:24:10.828Z,7.08
2022-12-27T23:26:39.507Z,7.18
2022-12-27T23:29:08.146Z,7.04
2022-12-27T23:31:35.989Z,6.86
2022-12-27T23:34:28.046Z,6.89
2022-12-27T23:36:57.050Z,6.99
2022-12-27T23:39:24.938Z,7.01
2022-12-27T23:41:52.844Z,6.92
2022-12-27T23:44:33.200Z,6.96
2022-12-27T23:47:05.211Z,6.97
2022-12-27T23:49:35.147Z,6.78
2022-12-27T23:52:03.271Z,7.00
2022-12-27T23:54:31.479Z,7.14
2022-12-27T23:57:19.878Z,6.94
2022-12-27T23:59:47.462Z,6.77
